KSTK/STK METAR and TAF weather

Enter ICAO airport designator
Station Type Date Time Source
KSTK METAR 2019/08/25 18:40 UTC NOAA

KSTK 251840Z AUTO 09006KT 10SM CLR 30/14 A2984 RMK AO2


Station Type Date Time Source
KSTK Decoded METAR 2019/08/25 18:40 UTC NOAA

Station name not available
Aug 25, 2019 - 02:40 PM EDT / 2019.08.25 1840 UTC
Wind: from the E (090 degrees) at 7 MPH (6 KT):0
Visibility: 10 mile(s):0
Sky conditions: clear
Temperature: 86 F (30 C)
Dew Point: 57 F (14 C)
Relative Humidity: 37%
Pressure (altimeter): 29.84 in. Hg (1010 hPa)
ob: KSTK 251840Z AUTO 09006KT 10SM CLR 30/14 A2984 RMK AO2
cycle: 18

Station Type Date Time Source
KSTK TAF UTC NOAA

Error!

Example: see airport list